KSUN/SUN METAR and TAF weather

Enter ICAO airport designator
Station Type Date Time Source
KSUN METAR 2022/12/04 03:55 UTC NOAA

KSUN 040355Z 29009KT 10SM SKC M09/M13 A3026


Station Type Date Time Source
KSUN Decoded METAR 2022/12/04 03:55 UTC NOAA

Hailey, Friedman Memorial Airport, ID, United States (KSUN) 43-30N 114-18W
Dec 03, 2022 - 10:55 PM EST / 2022.12.04 0355 UTC
Wind: from the WNW (290 degrees) at 10 MPH (9 KT):0
Visibility: 10 mile(s):0
Sky conditions: clear
Temperature: 15 F (-9 C)
Windchill: 3 F (-16 C):1
Dew Point: 8 F (-13 C)
Relative Humidity: 72%
Pressure (altimeter): 30.26 in. Hg (1024 hPa)
ob: KSUN 040355Z 29009KT 10SM SKC M09/M13 A3026
cycle: 4

Station Type Date Time Source
KSUN TAF 2022/12/03 18:24 UTC NOAA

TAF KSUN 031720Z 0318/0424 32011KT P6SM BKN200
FM031900 15007KT P6SM SCT040 OVC150
FM040100 32006KT P6SM SCT030
FM040900 32010KT P6SM BKN025 BKN100
FM041200 31005KT 2SM -SN OVC015
FM042000 15006KT 2SM -SN OVC015

Example: see airport list